createdAt,value
2023-04-18T00:03:15.190Z,9.23
2023-04-18T00:06:32.390Z,9.26
2023-04-18T00:09:49.019Z,9.26
2023-04-18T00:13:06.883Z,9.28
2023-04-18T00:16:23.362Z,9.25
2023-04-18T00:19:42.394Z,9.26
2023-04-18T00:22:58.857Z,9.26
2023-04-18T00:26:15.391Z,9.22
2023-04-18T00:29:33.121Z,9.22
2023-04-18T00:32:49.772Z,9.26
2023-04-18T00:36:06.952Z,9.20
2023-04-18T00:39:23.983Z,9.20
2023-04-18T00:42:40.931Z,9.23
2023-04-18T00:45:57.911Z,9.25
2023-04-18T00:49:16.319Z,9.26
2023-04-18T00:52:36.928Z,9.22
2023-04-18T00:55:53.945Z,9.22
2023-04-18T00:59:11.152Z,9.19
2023-04-18T01:02:30.887Z,9.20
2023-04-18T01:05:45.754Z,9.19
2023-04-18T01:09:03.133Z,9.21
2023-04-18T01:12:20.591Z,9.15
2023-04-18T01:15:38.369Z,9.16
2023-04-18T01:18:55.034Z,9.17
2023-04-18T01:22:12.334Z,9.17
2023-04-18T01:25:29.706Z,9.14
2023-04-18T01:28:47.778Z,9.14
2023-04-18T01:32:04.458Z,9.14
2023-04-18T01:35:21.894Z,9.11
2023-04-18T01:38:38.536Z,9.12
2023-04-18T01:41:55.261Z,9.10
2023-04-18T01:45:15.175Z,9.11
2023-04-18T01:48:31.612Z,9.09
2023-04-18T01:51:48.522Z,9.06
2023-04-18T01:55:04.938Z,9.08
2023-04-18T01:58:23.791Z,9.06
2023-04-18T02:01:40.813Z,9.06
2023-04-18T02:04:57.891Z,9.09
2023-04-18T02:08:14.950Z,9.11
2023-04-18T02:11:33.375Z,9.11
2023-04-18T02:14:51.952Z,9.12
2023-04-18T02:18:08.468Z,9.09
2023-04-18T02:21:27.179Z,9.08
2023-04-18T02:24:43.646Z,9.07
2023-04-18T02:28:00.663Z,9.12
2023-04-18T02:31:19.794Z,9.09
2023-04-18T02:34:36.443Z,9.10
2023-04-18T02:37:53.143Z,9.10
2023-04-18T02:41:09.570Z,9.05
2023-04-18T02:44:26.136Z,9.11
2023-04-18T02:47:54.765Z,9.11
2023-04-18T02:51:11.749Z,9.12
2023-04-18T02:54:28.669Z,9.11
2023-04-18T02:57:52.342Z,9.12
2023-04-18T03:01:15.671Z,9.12
2023-04-18T03:04:39.723Z,9.10
2023-04-18T03:07:57.545Z,9.09
2023-04-18T03:11:14.605Z,9.06
2023-04-18T03:14:32.556Z,9.07
2023-04-18T03:17:49.382Z,9.06
2023-04-18T03:21:08.192Z,9.05
2023-04-18T03:24:25.660Z,9.05
2023-04-18T03:27:43.811Z,9.02
2023-04-18T03:31:01.883Z,9.03
2023-04-18T03:34:20.284Z,9.01
2023-04-18T03:37:38.834Z,9.03
2023-04-18T03:40:57.106Z,9.04
2023-04-18T03:44:15.840Z,9.03
2023-04-18T03:47:32.602Z,9.05
2023-04-18T03:50:49.152Z,9.00
2023-04-18T03:54:06.118Z,9.00
2023-04-18T03:57:22.759Z,9.00
2023-04-18T04:00:41.111Z,9.00
2023-04-18T04:03:58.309Z,8.98
2023-04-18T04:07:15.550Z,8.97
2023-04-18T04:10:32.483Z,8.96
2023-04-18T04:13:50.196Z,8.96
2023-04-18T04:17:06.348Z,8.95
2023-04-18T04:20:25.789Z,8.95
2023-04-18T04:23:44.444Z,8.92
2023-04-18T04:27:04.649Z,8.93
2023-04-18T04:30:23.659Z,8.94
2023-04-18T04:33:51.379Z,8.95
2023-04-18T04:37:09.060Z,8.96
2023-04-18T04:40:28.298Z,8.96
2023-04-18T04:43:47.457Z,8.94
2023-04-18T04:47:05.794Z,8.96
2023-04-18T04:50:26.603Z,8.97
2023-04-18T04:53:43.218Z,9.00
2023-04-18T04:56:59.991Z,8.99
2023-04-18T05:00:21.945Z,8.97
2023-04-18T05:03:42.430Z,8.97
2023-04-18T05:06:59.321Z,8.92
2023-04-18T05:10:18.148Z,8.94
2023-04-18T05:13:34.932Z,8.95
2023-04-18T05:16:51.888Z,8.93
2023-04-18T05:20:09.565Z,8.96
2023-04-18T05:23:26.068Z,8.95
2023-04-18T05:26:42.674Z,8.95
2023-04-18T05:29:59.457Z,8.91
2023-04-18T05:33:17.506Z,8.93
2023-04-18T05:36:34.123Z,8.95
2023-04-18T05:39:50.891Z,8.92
2023-04-18T05:43:08.253Z,8.96
2023-04-18T05:46:24.750Z,8.95
2023-04-18T05:49:41.691Z,8.97
2023-04-18T05:53:00.230Z,9.00
2023-04-18T05:56:17.357Z,9.01
2023-04-18T05:59:34.135Z,9.05
2023-04-18T06:02:51.745Z,9.14
2023-04-18T06:06:08.494Z,9.15
2023-04-18T06:09:24.999Z,9.18
2023-04-18T06:12:41.579Z,9.20
2023-04-18T06:15:58.293Z,9.16
2023-04-18T06:19:14.755Z,9.18
2023-04-18T06:22:31.473Z,9.18
2023-04-18T06:25:52.211Z,9.17
2023-04-18T06:29:08.832Z,9.19
2023-04-18T06:32:25.475Z,9.18
2023-04-18T06:35:42.229Z,9.18
2023-04-18T06:38:59.281Z,9.15
2023-04-18T06:42:15.941Z,9.16
2023-04-18T06:45:37.633Z,9.15
2023-04-18T06:48:55.261Z,9.13
2023-04-18T06:52:11.925Z,9.12
2023-04-18T06:55:29.362Z,9.14
2023-04-18T06:58:46.244Z,9.14
2023-04-18T07:02:02.916Z,9.15
2023-04-18T07:05:19.839Z,9.20
2023-04-18T07:08:36.920Z,9.26
2023-04-18T07:11:53.583Z,9.28
2023-04-18T07:15:10.586Z,9.43
2023-04-18T07:18:37.201Z,9.46
2023-04-18T07:21:47.007Z,9.47
2023-04-18T07:25:03.451Z,9.63
2023-04-18T07:28:20.456Z,9.58
2023-04-18T07:31:37.304Z,9.63
2023-04-18T07:34:54.983Z,9.74
2023-04-18T07:38:12.806Z,9.99
2023-04-18T07:41:29.184Z,10.26
2023-04-18T07:44:46.749Z,10.90
2023-04-18T07:48:04.581Z,11.33
2023-04-18T07:51:21.600Z,12.00
2023-04-18T07:54:37.986Z,11.77
2023-04-18T07:57:54.563Z,11.90
2023-04-18T08:01:13.502Z,11.83
2023-04-18T08:04:30.776Z,12.05
2023-04-18T08:07:47.885Z,12.68
2023-04-18T08:11:07.368Z,13.36
2023-04-18T08:14:23.907Z,13.96
2023-04-18T08:17:40.452Z,14.34
2023-04-18T08:20:57.459Z,14.66
2023-04-18T08:24:14.824Z,14.54
2023-04-18T08:27:32.476Z,14.99
2023-04-18T08:30:50.106Z,14.45
2023-04-18T08:34:06.708Z,14.34
2023-04-18T08:37:23.430Z,14.74
2023-04-18T08:40:40.181Z,15.31
2023-04-18T08:43:59.137Z,15.50
2023-04-18T08:47:16.388Z,15.58
2023-04-18T08:50:33.188Z,15.17
2023-04-18T08:53:51.602Z,15.53
2023-04-18T08:57:21.454Z,15.77
2023-04-18T09:00:38.130Z,16.07
2023-04-18T09:03:54.455Z,16.07
2023-04-18T09:07:12.695Z,16.58
2023-04-18T09:10:39.307Z,16.12
2023-04-18T09:13:57.436Z,16.33
2023-04-18T09:17:14.089Z,15.60
2023-04-18T09:20:41.907Z,15.41
2023-04-18T09:23:58.547Z,14.97
2023-04-18T09:27:19.696Z,15.12
2023-04-18T09:30:47.527Z,15.34
2023-04-18T09:34:04.062Z,15.45
2023-04-18T09:37:21.763Z,15.30
2023-04-18T09:40:38.545Z,15.27
2023-04-18T09:43:55.315Z,15.27
2023-04-18T09:47:13.779Z,15.27
2023-04-18T09:50:30.238Z,15.27
2023-04-18T09:53:51.159Z,15.17
2023-04-18T09:57:08.979Z,15.35
2023-04-18T10:00:31.529Z,15.50
2023-04-18T10:03:53.887Z,15.56
2023-04-18T10:07:10.985Z,15.71
2023-04-18T10:10:27.696Z,15.79
2023-04-18T10:13:47.208Z,15.69
2023-04-18T10:17:04.459Z,15.83
2023-04-18T10:20:28.559Z,15.67
2023-04-18T10:23:48.445Z,15.61
2023-04-18T10:27:05.979Z,15.99
2023-04-18T10:30:24.345Z,16.15
2023-04-18T10:33:49.707Z,15.93
2023-04-18T10:37:15.535Z,15.92
2023-04-18T10:40:43.700Z,15.82
2023-04-18T10:44:25.044Z,15.68
2023-04-18T10:47:41.711Z,15.57
2023-04-18T10:51:25.413Z,15.57
2023-04-18T10:54:47.478Z,15.78
2023-04-18T10:58:06.778Z,15.63
2023-04-18T11:01:32.360Z,15.55
2023-04-18T11:04:49.060Z,15.55
2023-04-18T11:08:05.914Z,15.38
2023-04-18T11:11:23.093Z,15.26
2023-04-18T11:14:51.008Z,15.29
2023-04-18T11:18:09.944Z,15.16
2023-04-18T11:21:29.850Z,15.31
2023-04-18T11:24:46.858Z,15.27
2023-04-18T11:28:05.932Z,15.17
2023-04-18T11:31:24.682Z,15.34
2023-04-18T11:34:41.934Z,15.36
2023-04-18T11:37:59.855Z,15.38
2023-04-18T11:41:21.871Z,15.42
2023-04-18T11:44:40.120Z,15.41
2023-04-18T11:47:59.546Z,15.35
2023-04-18T11:51:32.158Z,15.27
2023-04-18T11:54:52.970Z,14.96
2023-04-18T11:58:11.518Z,14.85
2023-04-18T12:01:30.890Z,14.77
2023-04-18T12:05:05.376Z,14.71
2023-04-18T12:08:25.501Z,14.70
2023-04-18T12:11:41.819Z,14.71
2023-04-18T12:15:05.558Z,14.76
2023-04-18T12:18:25.790Z,14.71
2023-04-18T12:21:44.768Z,14.65
2023-04-18T12:25:28.204Z,14.64
2023-04-18T12:28:45.132Z,14.64
2023-04-18T12:32:02.061Z,14.70
2023-04-18T12:35:19.821Z,14.65
2023-04-18T12:38:37.872Z,14.67
2023-04-18T12:41:55.110Z,14.76
2023-04-18T12:45:16.372Z,14.76
2023-04-18T12:48:32.833Z,14.74
2023-04-18T12:51:49.248Z,14.79
2023-04-18T12:55:06.637Z,14.81
2023-04-18T12:58:23.412Z,14.75
2023-04-18T13:01:40.177Z,14.77
2023-04-18T13:04:57.751Z,14.74
2023-04-18T13:08:17.653Z,14.69
2023-04-18T13:11:33.430Z,14.63
2023-04-18T13:14:50.249Z,14.72
2023-04-18T13:18:08.073Z,14.69
2023-04-18T13:21:29.311Z,14.63
2023-04-18T13:24:45.754Z,14.68
2023-04-18T13:28:02.856Z,14.56
2023-04-18T13:31:19.202Z,14.58
2023-04-18T13:34:35.760Z,14.61
2023-04-18T13:37:54.051Z,14.52
2023-04-18T13:41:13.300Z,14.51
2023-04-18T13:44:29.459Z,14.58
2023-04-18T13:47:45.784Z,14.55
2023-04-18T13:51:03.224Z,14.53
2023-04-18T13:54:28.845Z,14.49
2023-04-18T13:57:52.158Z,14.48
2023-04-18T14:01:09.459Z,14.61
2023-04-18T14:07:42.311Z,14.62
2023-04-18T14:10:59.076Z,14.51
2023-04-18T14:14:15.690Z,14.53
2023-04-18T14:17:32.334Z,14.53
2023-04-18T14:20:49.424Z,14.48
2023-04-18T14:24:05.849Z,14.48
2023-04-18T14:27:22.492Z,14.46
2023-04-18T14:30:39.512Z,14.43
2023-04-18T14:37:00.643Z,14.36
2023-04-18T14:40:20.226Z,14.32
2023-04-18T14:43:37.045Z,14.32
2023-04-18T14:46:53.801Z,14.33
2023-04-18T14:50:14.065Z,14.35
2023-04-18T14:53:30.682Z,14.31
2023-04-18T14:56:47.103Z,14.34
2023-04-18T15:00:03.797Z,14.31
2023-04-18T15:03:20.448Z,14.30
2023-04-18T15:06:37.165Z,14.32
2023-04-18T15:09:58.507Z,14.38
2023-04-18T15:13:15.026Z,14.36
2023-04-18T15:16:32.068Z,14.37
2023-04-18T15:19:51.396Z,14.42
2023-04-18T15:23:09.971Z,14.46
2023-04-18T15:26:27.077Z,14.46
2023-04-18T15:29:45.816Z,14.49
2023-04-18T15:33:08.308Z,14.49
2023-04-18T15:36:24.849Z,14.54
2023-04-18T15:39:41.619Z,14.51
2023-04-18T15:43:01.518Z,14.43
2023-04-18T15:46:18.301Z,14.42
2023-04-18T15:49:35.243Z,14.40
2023-04-18T15:52:51.690Z,14.42
2023-04-18T15:56:08.241Z,14.37
2023-04-18T15:59:25.139Z,14.34
2023-04-18T16:02:41.780Z,14.27
2023-04-18T16:05:58.791Z,14.25
2023-04-18T16:09:15.473Z,14.20
2023-04-18T16:12:31.895Z,14.17
2023-04-18T16:15:49.189Z,14.16
2023-04-18T16:19:22.841Z,14.14
2023-04-18T16:22:39.606Z,14.02
2023-04-18T16:25:56.156Z,13.99
2023-04-18T16:29:14.154Z,13.97
2023-04-18T16:32:32.405Z,13.96
2023-04-18T16:35:48.922Z,13.94
2023-04-18T16:39:11.476Z,13.87
2023-04-18T16:42:28.002Z,13.86
2023-04-18T16:45:44.390Z,13.84
2023-04-18T16:49:02.403Z,13.80
2023-04-18T16:52:18.894Z,13.80
2023-04-18T16:55:35.624Z,13.75
2023-04-18T16:58:51.917Z,13.75
2023-04-18T17:02:09.084Z,13.72
2023-04-18T17:05:27.352Z,13.70
2023-04-18T17:08:43.733Z,13.70
2023-04-18T17:12:03.448Z,13.67
2023-04-18T17:15:20.463Z,13.66
2023-04-18T17:18:36.949Z,13.64
2023-04-18T17:21:53.340Z,13.62
2023-04-18T17:25:11.655Z,13.57
2023-04-18T17:28:32.037Z,13.56
2023-04-18T17:31:48.490Z,13.57
2023-04-18T17:35:07.018Z,13.56
2023-04-18T17:38:23.805Z,13.54
2023-04-18T17:41:43.598Z,13.53
2023-04-18T17:44:59.972Z,13.51
2023-04-18T17:48:17.931Z,13.51
2023-04-18T17:51:35.302Z,13.49
2023-04-18T17:54:51.906Z,13.47
2023-04-18T17:58:08.697Z,13.35
2023-04-18T18:01:27.123Z,13.23
2023-04-18T18:04:44.019Z,13.11
2023-04-18T18:08:00.801Z,13.04
2023-04-18T18:11:18.208Z,12.85
2023-04-18T18:14:35.076Z,12.85
2023-04-18T18:17:56.115Z,12.79
2023-04-18T18:21:12.817Z,12.69
2023-04-18T18:24:35.446Z,12.65
2023-04-18T18:27:52.494Z,12.74
2023-04-18T18:31:11.052Z,12.84
2023-04-18T18:34:28.694Z,12.88
2023-04-18T18:37:47.164Z,12.90
2023-04-18T18:41:05.739Z,12.96
2023-04-18T18:44:28.568Z,12.95
2023-04-18T18:47:45.830Z,12.98
2023-04-18T18:51:02.457Z,12.99
2023-04-18T18:54:33.942Z,12.97
2023-04-18T18:57:55.433Z,12.97
2023-04-18T19:01:12.353Z,12.98
2023-04-18T19:04:34.043Z,12.98
2023-04-18T19:07:52.440Z,12.92
2023-04-18T19:11:09.932Z,12.90
2023-04-18T19:14:26.633Z,12.87
2023-04-18T19:17:43.020Z,12.86
2023-04-18T19:20:59.765Z,12.86
2023-04-18T19:24:26.710Z,12.84
2023-04-18T19:27:43.541Z,12.74
2023-04-18T19:31:00.219Z,12.79
2023-04-18T19:34:19.109Z,12.77
2023-04-18T19:37:36.949Z,12.77
2023-04-18T19:40:53.785Z,12.75
2023-04-18T19:44:10.723Z,12.73
2023-04-18T19:47:28.297Z,12.69
2023-04-18T19:50:49.541Z,12.66
2023-04-18T19:54:05.940Z,12.67
2023-04-18T19:57:22.898Z,12.57
2023-04-18T20:00:40.401Z,12.54
2023-04-18T20:03:59.459Z,12.51
2023-04-18T20:07:14.029Z,12.52
2023-04-18T20:10:31.511Z,12.52
2023-04-18T20:13:48.322Z,12.43
2023-04-18T20:17:04.906Z,12.45
2023-04-18T20:20:22.352Z,12.45
2023-04-18T20:23:38.824Z,12.42
2023-04-18T20:26:55.260Z,12.41
2023-04-18T20:30:13.225Z,12.41
2023-04-18T20:33:29.753Z,12.38
2023-04-18T20:36:47.407Z,12.35
2023-04-18T20:40:05.561Z,12.32
2023-04-18T20:43:22.348Z,12.30
2023-04-18T20:46:38.909Z,12.28
2023-04-18T20:49:57.568Z,12.26
2023-04-18T20:53:14.270Z,12.17
2023-04-18T20:56:30.721Z,12.13
2023-04-18T20:59:47.058Z,12.03
2023-04-18T21:03:03.471Z,11.97
2023-04-18T21:06:22.217Z,11.94
2023-04-18T21:09:41.749Z,11.83
2023-04-18T21:12:58.147Z,11.83
2023-04-18T21:16:15.585Z,11.85
2023-04-18T21:19:32.641Z,11.88
2023-04-18T21:22:49.030Z,11.84
2023-04-18T21:26:05.657Z,11.81
2023-04-18T21:29:22.719Z,11.83
2023-04-18T21:32:39.024Z,11.84
2023-04-18T21:35:57.139Z,11.81
2023-04-18T21:39:13.821Z,11.77
2023-04-18T21:42:30.185Z,11.77
2023-04-18T21:45:46.554Z,11.80
2023-04-18T21:49:03.103Z,11.78
2023-04-18T21:52:19.602Z,11.80
2023-04-18T21:55:36.540Z,11.79
2023-04-18T21:58:53.115Z,11.80
2023-04-18T22:02:10.420Z,11.78
2023-04-18T22:05:28.955Z,11.71
2023-04-18T22:08:45.610Z,11.69
2023-04-18T22:12:03.880Z,11.64
2023-04-18T22:15:21.044Z,11.59
2023-04-18T22:18:38.823Z,11.54
2023-04-18T22:21:55.154Z,11.51
2023-04-18T22:25:12.545Z,11.51
2023-04-18T22:28:28.921Z,11.49
2023-04-18T22:31:45.521Z,11.39
2023-04-18T22:35:02.642Z,11.34
2023-04-18T22:38:19.348Z,11.35
2023-04-18T22:41:35.759Z,11.27
2023-04-18T22:44:52.792Z,11.17
2023-04-18T22:48:11.059Z,11.12
2023-04-18T22:51:29.236Z,11.12
2023-04-18T22:54:47.998Z,11.06
2023-04-18T22:58:04.342Z,11.02
2023-04-18T23:01:21.382Z,11.05
2023-04-18T23:04:40.864Z,11.02
2023-04-18T23:08:00.112Z,10.87
2023-04-18T23:11:17.915Z,10.95
2023-04-18T23:14:35.309Z,10.91
2023-04-18T23:17:51.673Z,10.98
2023-04-18T23:21:09.677Z,10.95
2023-04-18T23:24:27.265Z,10.83
2023-04-18T23:27:43.824Z,10.91
2023-04-18T23:31:00.388Z,10.97
2023-04-18T23:34:17.472Z,11.05
2023-04-18T23:37:34.010Z,11.02
2023-04-18T23:40:50.357Z,11.00
2023-04-18T23:44:07.169Z,10.99
2023-04-18T23:47:23.577Z,10.98
2023-04-18T23:50:41.257Z,10.97
2023-04-18T23:53:58.851Z,10.95
2023-04-18T23:57:15.180Z,10.91
